sensor_id;sensor_type;location;lat;lon;timestamp;temperature;humidity
13488;DHT22;6816;48.506;9.050;2023-06-26T00:01:49;20.50;71.00
13488;DHT22;6816;48.506;9.050;2023-06-26T00:04:50;20.50;71.30
13488;DHT22;6816;48.506;9.050;2023-06-26T00:07:54;20.40;71.50
13488;DHT22;6816;48.506;9.050;2023-06-26T00:10:54;20.30;71.70
13488;DHT22;6816;48.506;9.050;2023-06-26T00:13:55;20.30;72.00
13488;DHT22;6816;48.506;9.050;2023-06-26T00:16:55;20.20;72.10
13488;DHT22;6816;48.506;9.050;2023-06-26T00:19:56;20.20;72.40
13488;DHT22;6816;48.506;9.050;2023-06-26T00:22:57;20.10;72.60
13488;DHT22;6816;48.506;9.050;2023-06-26T00:25:59;20.10;73.00
13488;DHT22;6816;48.506;9.050;2023-06-26T00:28:59;20.10;73.00
13488;DHT22;6816;48.506;9.050;2023-06-26T00:32:00;20.00;73.10
13488;DHT22;6816;48.506;9.050;2023-06-26T00:35:00;19.90;74.00
13488;DHT22;6816;48.506;9.050;2023-06-26T00:38:02;19.90;73.40
13488;DHT22;6816;48.506;9.050;2023-06-26T00:41:02;19.80;73.50
13488;DHT22;6816;48.506;9.050;2023-06-26T00:44:04;19.70;73.80
13488;DHT22;6816;48.506;9.050;2023-06-26T00:47:05;19.70;74.70
13488;DHT22;6816;48.506;9.050;2023-06-26T00:50:06;19.60;74.00
13488;DHT22;6816;48.506;9.050;2023-06-26T00:53:09;19.50;74.10
13488;DHT22;6816;48.506;9.050;2023-06-26T00:56:10;19.50;74.30
13488;DHT22;6816;48.506;9.050;2023-06-26T00:59:11;19.40;74.40
13488;DHT22;6816;48.506;9.050;2023-06-26T01:02:12;19.30;74.50
13488;DHT22;6816;48.506;9.050;2023-06-26T01:05:13;19.30;74.70
13488;DHT22;6816;48.506;9.050;2023-06-26T01:08:22;19.30;74.80
13488;DHT22;6816;48.506;9.050;2023-06-26T01:11:22;19.10;74.90
13488;DHT22;6816;48.506;9.050;2023-06-26T01:14:23;19.00;75.10
13488;DHT22;6816;48.506;9.050;2023-06-26T01:17:24;19.00;75.30
13488;DHT22;6816;48.506;9.050;2023-06-26T01:20:25;18.90;75.50
13488;DHT22;6816;48.506;9.050;2023-06-26T01:23:31;18.90;75.80
13488;DHT22;6816;48.506;9.050;2023-06-26T01:26:37;18.80;76.20
13488;DHT22;6816;48.506;9.050;2023-06-26T01:29:40;18.90;76.20
13488;DHT22;6816;48.506;9.050;2023-06-26T01:32:43;18.70;76.40
13488;DHT22;6816;48.506;9.050;2023-06-26T01:35:44;18.80;76.60
13488;DHT22;6816;48.506;9.050;2023-06-26T01:38:45;18.60;76.60
13488;DHT22;6816;48.506;9.050;2023-06-26T01:41:45;18.60;76.80
13488;DHT22;6816;48.506;9.050;2023-06-26T01:44:46;18.50;76.90
13488;DHT22;6816;48.506;9.050;2023-06-26T01:47:50;18.50;77.10
13488;DHT22;6816;48.506;9.050;2023-06-26T01:50:53;18.40;78.30
13488;DHT22;6816;48.506;9.050;2023-06-26T01:53:55;18.40;77.50
13488;DHT22;6816;48.506;9.050;2023-06-26T01:56:57;18.30;77.60
13488;DHT22;6816;48.506;9.050;2023-06-26T01:59:59;18.20;77.60
13488;DHT22;6816;48.506;9.050;2023-06-26T02:03:00;18.30;77.90
13488;DHT22;6816;48.506;9.050;2023-06-26T02:06:01;18.30;78.10
13488;DHT22;6816;48.506;9.050;2023-06-26T02:09:01;18.20;78.30
13488;DHT22;6816;48.506;9.050;2023-06-26T02:12:02;18.10;78.50
13488;DHT22;6816;48.506;9.050;2023-06-26T02:15:04;18.00;78.70
13488;DHT22;6816;48.506;9.050;2023-06-26T02:18:04;18.00;78.80
13488;DHT22;6816;48.506;9.050;2023-06-26T02:21:05;18.10;79.00
13488;DHT22;6816;48.506;9.050;2023-06-26T02:24:07;18.00;79.10
13488;DHT22;6816;48.506;9.050;2023-06-26T02:27:08;18.00;79.30
13488;DHT22;6816;48.506;9.050;2023-06-26T02:30:09;17.90;79.20
13488;DHT22;6816;48.506;9.050;2023-06-26T02:33:10;17.90;79.30
13488;DHT22;6816;48.506;9.050;2023-06-26T02:36:10;17.90;79.40
13488;DHT22;6816;48.506;9.050;2023-06-26T02:39:11;17.80;79.50
13488;DHT22;6816;48.506;9.050;2023-06-26T02:42:11;17.80;79.60
13488;DHT22;6816;48.506;9.050;2023-06-26T02:45:12;17.80;79.80
13488;DHT22;6816;48.506;9.050;2023-06-26T02:48:13;17.70;80.00
13488;DHT22;6816;48.506;9.050;2023-06-26T02:51:13;17.70;80.10
13488;DHT22;6816;48.506;9.050;2023-06-26T02:54:14;17.60;80.20
13488;DHT22;6816;48.506;9.050;2023-06-26T02:57:14;17.70;80.30
13488;DHT22;6816;48.506;9.050;2023-06-26T03:00:17;17.60;80.30
13488;DHT22;6816;48.506;9.050;2023-06-26T03:03:18;17.50;80.40
13488;DHT22;6816;48.506;9.050;2023-06-26T03:06:18;17.60;80.60
13488;DHT22;6816;48.506;9.050;2023-06-26T03:09:19;17.60;80.80
13488;DHT22;6816;48.506;9.050;2023-06-26T03:12:19;17.50;80.90
13488;DHT22;6816;48.506;9.050;2023-06-26T03:15:20;17.50;81.10
13488;DHT22;6816;48.506;9.050;2023-06-26T03:18:21;17.40;81.20
13488;DHT22;6816;48.506;9.050;2023-06-26T03:21:21;17.40;81.40
13488;DHT22;6816;48.506;9.050;2023-06-26T03:24:22;17.40;81.60
13488;DHT22;6816;48.506;9.050;2023-06-26T03:27:22;17.30;81.70
13488;DHT22;6816;48.506;9.050;2023-06-26T03:30:23;17.30;82.00
13488;DHT22;6816;48.506;9.050;2023-06-26T03:33:24;17.30;82.20
13488;DHT22;6816;48.506;9.050;2023-06-26T03:36:24;17.30;82.50
13488;DHT22;6816;48.506;9.050;2023-06-26T03:39:25;17.40;82.70
13488;DHT22;6816;48.506;9.050;2023-06-26T03:42:25;17.30;82.70
13488;DHT22;6816;48.506;9.050;2023-06-26T03:45:26;17.30;82.70
13488;DHT22;6816;48.506;9.050;2023-06-26T03:48:27;17.30;82.70
13488;DHT22;6816;48.506;9.050;2023-06-26T03:51:28;17.30;82.80
13488;DHT22;6816;48.506;9.050;2023-06-26T03:54:28;17.40;82.90
13488;DHT22;6816;48.506;9.050;2023-06-26T03:57:29;17.30;82.80
13488;DHT22;6816;48.506;9.050;2023-06-26T04:00:30;17.30;82.80
13488;DHT22;6816;48.506;9.050;2023-06-26T04:03:30;17.30;83.00
13488;DHT22;6816;48.506;9.050;2023-06-26T04:06:31;17.30;83.20
13488;DHT22;6816;48.506;9.050;2023-06-26T04:09:32;17.30;83.30
13488;DHT22;6816;48.506;9.050;2023-06-26T04:12:33;17.30;83.30
13488;DHT22;6816;48.506;9.050;2023-06-26T04:15:33;17.30;83.50
13488;DHT22;6816;48.506;9.050;2023-06-26T04:18:34;17.20;83.60
13488;DHT22;6816;48.506;9.050;2023-06-26T04:21:34;17.30;83.90
13488;DHT22;6816;48.506;9.050;2023-06-26T04:24:35;17.30;84.10
13488;DHT22;6816;48.506;9.050;2023-06-26T04:27:36;17.50;85.10
13488;DHT22;6816;48.506;9.050;2023-06-26T04:30:36;17.40;84.30
13488;DHT22;6816;48.506;9.050;2023-06-26T04:33:39;17.50;84.50
13488;DHT22;6816;48.506;9.050;2023-06-26T04:36:39;17.40;84.50
13488;DHT22;6816;48.506;9.050;2023-06-26T04:39:40;17.50;84.60
13488;DHT22;6816;48.506;9.050;2023-06-26T04:42:41;17.50;84.70
13488;DHT22;6816;48.506;9.050;2023-06-26T04:45:41;17.60;84.90
13488;DHT22;6816;48.506;9.050;2023-06-26T04:48:42;17.60;85.00
13488;DHT22;6816;48.506;9.050;2023-06-26T04:51:44;17.70;85.20
13488;DHT22;6816;48.506;9.050;2023-06-26T04:54:45;17.70;85.30
13488;DHT22;6816;48.506;9.050;2023-06-26T04:57:46;17.80;85.50
13488;DHT22;6816;48.506;9.050;2023-06-26T05:00:47;17.90;85.80
13488;DHT22;6816;48.506;9.050;2023-06-26T05:03:47;18.00;86.00
13488;DHT22;6816;48.506;9.050;2023-06-26T05:06:48;18.00;86.20
13488;DHT22;6816;48.506;9.050;2023-06-26T05:09:49;18.10;86.50
13488;DHT22;6816;48.506;9.050;2023-06-26T05:12:49;18.20;86.90
13488;DHT22;6816;48.506;9.050;2023-06-26T05:15:50;18.30;87.10
13488;DHT22;6816;48.506;9.050;2023-06-26T05:18:51;18.50;87.40
13488;DHT22;6816;48.506;9.050;2023-06-26T05:21:52;18.70;87.50
13488;DHT22;6816;48.506;9.050;2023-06-26T05:24:55;18.90;87.50
13488;DHT22;6816;48.506;9.050;2023-06-26T05:28:01;19.10;87.30
13488;DHT22;6816;48.506;9.050;2023-06-26T05:31:02;19.30;87.10
13488;DHT22;6816;48.506;9.050;2023-06-26T05:34:05;19.50;86.70
13488;DHT22;6816;48.506;9.050;2023-06-26T05:37:07;19.80;86.60
13488;DHT22;6816;48.506;9.050;2023-06-26T05:40:08;20.00;86.40
13488;DHT22;6816;48.506;9.050;2023-06-26T05:43:09;20.20;85.80
13488;DHT22;6816;48.506;9.050;2023-06-26T05:46:10;20.50;85.20
13488;DHT22;6816;48.506;9.050;2023-06-26T05:49:11;20.70;84.90
13488;DHT22;6816;48.506;9.050;2023-06-26T05:52:12;20.90;84.40
13488;DHT22;6816;48.506;9.050;2023-06-26T05:55:13;21.10;84.10
13488;DHT22;6816;48.506;9.050;2023-06-26T05:58:14;21.40;84.50
13488;DHT22;6816;48.506;9.050;2023-06-26T06:01:16;21.60;83.10
13488;DHT22;6816;48.506;9.050;2023-06-26T06:04:16;21.80;82.40
13488;DHT22;6816;48.506;9.050;2023-06-26T06:07:17;22.00;82.20
13488;DHT22;6816;48.506;9.050;2023-06-26T06:10:17;22.20;81.50
13488;DHT22;6816;48.506;9.050;2023-06-26T06:13:18;22.40;80.60
13488;DHT22;6816;48.506;9.050;2023-06-26T06:16:19;22.60;80.70
13488;DHT22;6816;48.506;9.050;2023-06-26T06:19:19;22.80;80.50
13488;DHT22;6816;48.506;9.050;2023-06-26T06:22:20;23.00;79.60
13488;DHT22;6816;48.506;9.050;2023-06-26T06:25:21;23.20;79.20
13488;DHT22;6816;48.506;9.050;2023-06-26T06:28:21;23.40;78.90
13488;DHT22;6816;48.506;9.050;2023-06-26T06:31:22;23.60;78.60
13488;DHT22;6816;48.506;9.050;2023-06-26T06:34:22;23.80;78.50
13488;DHT22;6816;48.506;9.050;2023-06-26T06:37:23;24.00;78.90
13488;DHT22;6816;48.506;9.050;2023-06-26T06:40:24;24.20;77.80
13488;DHT22;6816;48.506;9.050;2023-06-26T06:43:26;24.40;77.00
13488;DHT22;6816;48.506;9.050;2023-06-26T06:46:26;24.60;76.50
13488;DHT22;6816;48.506;9.050;2023-06-26T06:49:27;24.80;76.80
13488;DHT22;6816;48.506;9.050;2023-06-26T06:52:28;25.00;75.80
13488;DHT22;6816;48.506;9.050;2023-06-26T06:55:28;25.20;75.40
13488;DHT22;6816;48.506;9.050;2023-06-26T06:58:29;25.40;75.00
13488;DHT22;6816;48.506;9.050;2023-06-26T07:01:34;25.60;74.20
13488;DHT22;6816;48.506;9.050;2023-06-26T07:04:34;25.80;74.00
13488;DHT22;6816;48.506;9.050;2023-06-26T07:07:36;26.00;73.70
13488;DHT22;6816;48.506;9.050;2023-06-26T07:10:37;26.20;72.90
13488;DHT22;6816;48.506;9.050;2023-06-26T07:13:37;26.30;72.40
13488;DHT22;6816;48.506;9.050;2023-06-26T07:16:38;26.50;72.30
13488;DHT22;6816;48.506;9.050;2023-06-26T07:19:38;26.70;71.70
13488;DHT22;6816;48.506;9.050;2023-06-26T07:22:39;26.90;72.90
13488;DHT22;6816;48.506;9.050;2023-06-26T07:25:40;27.00;71.50
13488;DHT22;6816;48.506;9.050;2023-06-26T07:28:40;27.20;70.70
13488;DHT22;6816;48.506;9.050;2023-06-26T07:31:41;27.30;69.70
13488;DHT22;6816;48.506;9.050;2023-06-26T07:34:42;27.50;70.00
13488;DHT22;6816;48.506;9.050;2023-06-26T07:37:42;27.60;69.30
13488;DHT22;6816;48.506;9.050;2023-06-26T07:40:43;27.80;68.90
13488;DHT22;6816;48.506;9.050;2023-06-26T07:43:43;28.00;68.90
13488;DHT22;6816;48.506;9.050;2023-06-26T07:46:44;28.10;68.10
13488;DHT22;6816;48.506;9.050;2023-06-26T07:49:45;28.30;67.90
13488;DHT22;6816;48.506;9.050;2023-06-26T07:52:45;28.50;67.40
13488;DHT22;6816;48.506;9.050;2023-06-26T07:55:46;28.70;67.00
13488;DHT22;6816;48.506;9.050;2023-06-26T07:58:47;28.90;66.80
13488;DHT22;6816;48.506;9.050;2023-06-26T08:01:47;29.00;66.40
13488;DHT22;6816;48.506;9.050;2023-06-26T08:04:48;29.20;65.70
13488;DHT22;6816;48.506;9.050;2023-06-26T08:07:48;29.40;64.70
13488;DHT22;6816;48.506;9.050;2023-06-26T08:10:49;29.60;64.50
13488;DHT22;6816;48.506;9.050;2023-06-26T08:13:50;29.70;63.90
13488;DHT22;6816;48.506;9.050;2023-06-26T08:16:50;29.90;63.20
13488;DHT22;6816;48.506;9.050;2023-06-26T08:19:51;30.10;61.90
13488;DHT22;6816;48.506;9.050;2023-06-26T08:22:52;30.20;61.60
13488;DHT22;6816;48.506;9.050;2023-06-26T08:25:54;30.30;60.60
13488;DHT22;6816;48.506;9.050;2023-06-26T08:28:55;30.50;60.00
13488;DHT22;6816;48.506;9.050;2023-06-26T08:31:55;30.60;59.80
13488;DHT22;6816;48.506;9.050;2023-06-26T08:34:56;30.80;59.20
13488;DHT22;6816;48.506;9.050;2023-06-26T08:37:57;30.90;59.20
13488;DHT22;6816;48.506;9.050;2023-06-26T08:40:57;31.00;58.40
13488;DHT22;6816;48.506;9.050;2023-06-26T08:43:58;31.10;58.20
13488;DHT22;6816;48.506;9.050;2023-06-26T08:47:03;31.20;57.80
13488;DHT22;6816;48.506;9.050;2023-06-26T08:50:13;31.30;56.50
13488;DHT22;6816;48.506;9.050;2023-06-26T08:53:29;31.40;56.60
13488;DHT22;6816;48.506;9.050;2023-06-26T08:56:40;31.50;55.50
13488;DHT22;6816;48.506;9.050;2023-06-26T08:59:42;31.60;54.70
13488;DHT22;6816;48.506;9.050;2023-06-26T09:02:43;31.70;55.80
13488;DHT22;6816;48.506;9.050;2023-06-26T09:05:44;31.80;55.80
13488;DHT22;6816;48.506;9.050;2023-06-26T09:08:45;31.90;56.30
13488;DHT22;6816;48.506;9.050;2023-06-26T09:11:46;32.00;55.30
13488;DHT22;6816;48.506;9.050;2023-06-26T09:14:47;32.10;54.70
13488;DHT22;6816;48.506;9.050;2023-06-26T09:17:48;32.20;54.60
13488;DHT22;6816;48.506;9.050;2023-06-26T09:20:49;32.30;54.20
13488;DHT22;6816;48.506;9.050;2023-06-26T09:23:50;32.40;54.10
13488;DHT22;6816;48.506;9.050;2023-06-26T09:26:53;32.60;53.90
13488;DHT22;6816;48.506;9.050;2023-06-26T09:29:54;32.70;53.40
13488;DHT22;6816;48.506;9.050;2023-06-26T09:32:56;32.70;53.10
13488;DHT22;6816;48.506;9.050;2023-06-26T09:35:57;32.90;52.50
13488;DHT22;6816;48.506;9.050;2023-06-26T09:39:02;32.90;52.00
13488;DHT22;6816;48.506;9.050;2023-06-26T09:42:03;33.10;51.90
13488;DHT22;6816;48.506;9.050;2023-06-26T09:45:05;33.10;52.00
13488;DHT22;6816;48.506;9.050;2023-06-26T09:48:06;33.20;51.50
13488;DHT22;6816;48.506;9.050;2023-06-26T09:51:09;33.30;51.70
13488;DHT22;6816;48.506;9.050;2023-06-26T09:54:10;33.30;51.20
13488;DHT22;6816;48.506;9.050;2023-06-26T09:57:12;33.40;51.30
13488;DHT22;6816;48.506;9.050;2023-06-26T10:00:14;33.50;51.10
13488;DHT22;6816;48.506;9.050;2023-06-26T10:03:14;33.60;51.10
13488;DHT22;6816;48.506;9.050;2023-06-26T10:06:19;33.70;50.90
13488;DHT22;6816;48.506;9.050;2023-06-26T10:09:22;33.80;49.90
13488;DHT22;6816;48.506;9.050;2023-06-26T10:12:30;33.80;49.60
13488;DHT22;6816;48.506;9.050;2023-06-26T10:15:31;33.90;48.40
13488;DHT22;6816;48.506;9.050;2023-06-26T10:18:32;34.00;49.50
13488;DHT22;6816;48.506;9.050;2023-06-26T10:21:34;34.00;48.90
13488;DHT22;6816;48.506;9.050;2023-06-26T10:24:35;34.00;48.00
13488;DHT22;6816;48.506;9.050;2023-06-26T10:27:40;34.10;48.00
13488;DHT22;6816;48.506;9.050;2023-06-26T10:30:44;34.10;47.40
13488;DHT22;6816;48.506;9.050;2023-06-26T10:33:45;34.10;47.40
13488;DHT22;6816;48.506;9.050;2023-06-26T10:36:45;34.00;47.50
13488;DHT22;6816;48.506;9.050;2023-06-26T10:39:54;34.00;47.40
13488;DHT22;6816;48.506;9.050;2023-06-26T10:43:08;33.90;46.40
13488;DHT22;6816;48.506;9.050;2023-06-26T10:46:09;33.80;46.20
13488;DHT22;6816;48.506;9.050;2023-06-26T10:49:12;33.70;47.50
13488;DHT22;6816;48.506;9.050;2023-06-26T10:52:13;33.70;47.30
13488;DHT22;6816;48.506;9.050;2023-06-26T10:55:14;33.60;48.00
13488;DHT22;6816;48.506;9.050;2023-06-26T11:01:41;33.50;47.60
13488;DHT22;6816;48.506;9.050;2023-06-26T11:04:47;33.50;48.40
13488;DHT22;6816;48.506;9.050;2023-06-26T11:11:05;33.50;47.80
13488;DHT22;6816;48.506;9.050;2023-06-26T11:14:06;33.50;48.90
13488;DHT22;6816;48.506;9.050;2023-06-26T11:17:07;33.60;48.70
13488;DHT22;6816;48.506;9.050;2023-06-26T11:20:13;33.60;48.30
13488;DHT22;6816;48.506;9.050;2023-06-26T11:23:22;33.70;48.30
13488;DHT22;6816;48.506;9.050;2023-06-26T11:26:25;33.80;48.00
13488;DHT22;6816;48.506;9.050;2023-06-26T11:29:26;33.80;48.80
13488;DHT22;6816;48.506;9.050;2023-06-26T11:32:27;33.80;49.10
13488;DHT22;6816;48.506;9.050;2023-06-26T11:35:29;33.90;48.90
13488;DHT22;6816;48.506;9.050;2023-06-26T11:38:37;33.90;49.00
13488;DHT22;6816;48.506;9.050;2023-06-26T11:41:40;34.00;48.20
13488;DHT22;6816;48.506;9.050;2023-06-26T11:44:44;33.90;48.20
13488;DHT22;6816;48.506;9.050;2023-06-26T11:47:45;34.00;47.60
13488;DHT22;6816;48.506;9.050;2023-06-26T11:50:45;33.90;47.90
13488;DHT22;6816;48.506;9.050;2023-06-26T11:53:47;33.90;48.00
13488;DHT22;6816;48.506;9.050;2023-06-26T11:56:55;33.70;48.20
13488;DHT22;6816;48.506;9.050;2023-06-26T12:00:13;33.60;47.80
13488;DHT22;6816;48.506;9.050;2023-06-26T12:03:14;33.50;48.20
13488;DHT22;6816;48.506;9.050;2023-06-26T12:06:16;33.40;48.40
13488;DHT22;6816;48.506;9.050;2023-06-26T12:09:18;33.30;48.50
13488;DHT22;6816;48.506;9.050;2023-06-26T12:12:19;33.30;48.90
13488;DHT22;6816;48.506;9.050;2023-06-26T12:15:20;33.20;49.00
13488;DHT22;6816;48.506;9.050;2023-06-26T12:18:21;33.20;48.80
13488;DHT22;6816;48.506;9.050;2023-06-26T12:21:33;33.20;49.10
13488;DHT22;6816;48.506;9.050;2023-06-26T12:24:38;33.30;48.50
13488;DHT22;6816;48.506;9.050;2023-06-26T12:27:39;33.30;48.90
13488;DHT22;6816;48.506;9.050;2023-06-26T12:30:40;33.40;48.90
13488;DHT22;6816;48.506;9.050;2023-06-26T12:33:40;33.50;48.70
13488;DHT22;6816;48.506;9.050;2023-06-26T12:36:43;33.50;48.90
13488;DHT22;6816;48.506;9.050;2023-06-26T12:39:55;33.60;48.70
13488;DHT22;6816;48.506;9.050;2023-06-26T12:42:56;33.60;48.70
13488;DHT22;6816;48.506;9.050;2023-06-26T12:45:57;33.70;48.70
13488;DHT22;6816;48.506;9.050;2023-06-26T12:48:57;33.80;48.80
13488;DHT22;6816;48.506;9.050;2023-06-26T12:51:59;33.80;48.80
13488;DHT22;6816;48.506;9.050;2023-06-26T12:55:01;33.80;48.60
13488;DHT22;6816;48.506;9.050;2023-06-26T12:58:01;33.80;48.60
13488;DHT22;6816;48.506;9.050;2023-06-26T13:01:07;33.80;48.80
13488;DHT22;6816;48.506;9.050;2023-06-26T13:04:20;33.80;48.90
13488;DHT22;6816;48.506;9.050;2023-06-26T13:07:21;33.80;49.20
13488;DHT22;6816;48.506;9.050;2023-06-26T13:10:21;33.80;49.00
13488;DHT22;6816;48.506;9.050;2023-06-26T13:13:22;33.80;49.10
13488;DHT22;6816;48.506;9.050;2023-06-26T13:16:23;33.80;49.00
13488;DHT22;6816;48.506;9.050;2023-06-26T13:19:23;33.80;49.20
13488;DHT22;6816;48.506;9.050;2023-06-26T13:22:24;33.80;49.00
13488;DHT22;6816;48.506;9.050;2023-06-26T13:25:24;33.80;49.50
13488;DHT22;6816;48.506;9.050;2023-06-26T13:28:25;33.90;49.60
13488;DHT22;6816;48.506;9.050;2023-06-26T13:31:25;33.90;49.40
13488;DHT22;6816;48.506;9.050;2023-06-26T13:34:28;33.90;49.30
13488;DHT22;6816;48.506;9.050;2023-06-26T13:37:28;33.90;49.10
13488;DHT22;6816;48.506;9.050;2023-06-26T13:40:29;33.90;49.20
13488;DHT22;6816;48.506;9.050;2023-06-26T13:43:30;33.90;49.10
13488;DHT22;6816;48.506;9.050;2023-06-26T13:46:30;33.90;49.10
13488;DHT22;6816;48.506;9.050;2023-06-26T13:49:31;34.00;48.90
13488;DHT22;6816;48.506;9.050;2023-06-26T13:52:32;34.00;48.90
13488;DHT22;6816;48.506;9.050;2023-06-26T13:55:33;33.90;48.50
13488;DHT22;6816;48.506;9.050;2023-06-26T13:58:35;33.90;48.10
13488;DHT22;6816;48.506;9.050;2023-06-26T14:01:36;33.90;47.80
13488;DHT22;6816;48.506;9.050;2023-06-26T14:04:37;33.80;47.60
13488;DHT22;6816;48.506;9.050;2023-06-26T14:07:37;33.70;47.90
13488;DHT22;6816;48.506;9.050;2023-06-26T14:10:38;33.60;48.70
13488;DHT22;6816;48.506;9.050;2023-06-26T14:13:39;33.60;47.80
13488;DHT22;6816;48.506;9.050;2023-06-26T14:16:40;33.60;48.10
13488;DHT22;6816;48.506;9.050;2023-06-26T14:19:40;33.60;48.20
13488;DHT22;6816;48.506;9.050;2023-06-26T14:22:41;33.60;47.90
13488;DHT22;6816;48.506;9.050;2023-06-26T14:25:43;33.50;47.80
13488;DHT22;6816;48.506;9.050;2023-06-26T14:28:43;33.60;48.10
13488;DHT22;6816;48.506;9.050;2023-06-26T14:31:45;33.60;48.10
13488;DHT22;6816;48.506;9.050;2023-06-26T14:34:45;33.70;47.50
13488;DHT22;6816;48.506;9.050;2023-06-26T14:37:48;33.70;47.10
13488;DHT22;6816;48.506;9.050;2023-06-26T14:40:48;33.80;47.40
13488;DHT22;6816;48.506;9.050;2023-06-26T14:43:49;33.90;46.90
13488;DHT22;6816;48.506;9.050;2023-06-26T14:46:50;33.90;46.60
13488;DHT22;6816;48.506;9.050;2023-06-26T14:49:51;33.90;46.70
13488;DHT22;6816;48.506;9.050;2023-06-26T14:52:51;33.90;46.70
13488;DHT22;6816;48.506;9.050;2023-06-26T14:55:52;34.00;47.10
13488;DHT22;6816;48.506;9.050;2023-06-26T14:58:52;34.00;46.60
13488;DHT22;6816;48.506;9.050;2023-06-26T15:01:53;34.00;46.40
13488;DHT22;6816;48.506;9.050;2023-06-26T15:04:54;34.10;46.30
13488;DHT22;6816;48.506;9.050;2023-06-26T15:07:55;34.10;46.00
13488;DHT22;6816;48.506;9.050;2023-06-26T15:10:56;34.10;46.00
13488;DHT22;6816;48.506;9.050;2023-06-26T15:13:57;34.20;45.60
13488;DHT22;6816;48.506;9.050;2023-06-26T15:16:58;34.20;45.20
13488;DHT22;6816;48.506;9.050;2023-06-26T15:19:59;34.20;45.30
13488;DHT22;6816;48.506;9.050;2023-06-26T15:23:00;34.20;45.00
13488;DHT22;6816;48.506;9.050;2023-06-26T15:26:00;34.20;45.00
13488;DHT22;6816;48.506;9.050;2023-06-26T15:29:01;34.20;45.10
13488;DHT22;6816;48.506;9.050;2023-06-26T15:32:02;34.30;44.90
13488;DHT22;6816;48.506;9.050;2023-06-26T15:35:02;34.30;45.10
13488;DHT22;6816;48.506;9.050;2023-06-26T15:38:03;34.40;44.80
13488;DHT22;6816;48.506;9.050;2023-06-26T15:41:04;34.40;45.00
13488;DHT22;6816;48.506;9.050;2023-06-26T15:44:05;34.40;44.30
13488;DHT22;6816;48.506;9.050;2023-06-26T15:47:06;34.40;44.90
13488;DHT22;6816;48.506;9.050;2023-06-26T15:50:10;34.30;44.10
13488;DHT22;6816;48.506;9.050;2023-06-26T15:53:16;34.30;44.20
13488;DHT22;6816;48.506;9.050;2023-06-26T15:56:18;34.20;44.10
13488;DHT22;6816;48.506;9.050;2023-06-26T15:59:18;34.10;44.30
13488;DHT22;6816;48.506;9.050;2023-06-26T16:02:19;34.10;44.50
13488;DHT22;6816;48.506;9.050;2023-06-26T16:05:19;34.00;44.20
13488;DHT22;6816;48.506;9.050;2023-06-26T16:08:20;33.90;44.70
13488;DHT22;6816;48.506;9.050;2023-06-26T16:11:21;33.70;44.10
13488;DHT22;6816;48.506;9.050;2023-06-26T16:14:21;33.60;44.10
13488;DHT22;6816;48.506;9.050;2023-06-26T16:17:22;33.40;44.60
13488;DHT22;6816;48.506;9.050;2023-06-26T16:20:22;33.20;44.60
13488;DHT22;6816;48.506;9.050;2023-06-26T16:23:23;33.10;45.30
13488;DHT22;6816;48.506;9.050;2023-06-26T16:26:24;32.90;44.60
13488;DHT22;6816;48.506;9.050;2023-06-26T16:29:24;32.70;44.80
13488;DHT22;6816;48.506;9.050;2023-06-26T16:32:25;32.50;44.80
13488;DHT22;6816;48.506;9.050;2023-06-26T16:35:29;32.20;44.90
13488;DHT22;6816;48.506;9.050;2023-06-26T16:38:34;32.00;45.40
13488;DHT22;6816;48.506;9.050;2023-06-26T16:41:35;31.80;45.50
13488;DHT22;6816;48.506;9.050;2023-06-26T16:44:35;31.60;45.80
13488;DHT22;6816;48.506;9.050;2023-06-26T16:47:36;31.40;46.00
13488;DHT22;6816;48.506;9.050;2023-06-26T16:50:36;31.20;46.00
13488;DHT22;6816;48.506;9.050;2023-06-26T16:53:37;31.10;46.10
13488;DHT22;6816;48.506;9.050;2023-06-26T16:56:38;30.90;46.20
13488;DHT22;6816;48.506;9.050;2023-06-26T16:59:38;30.70;46.90
13488;DHT22;6816;48.506;9.050;2023-06-26T17:02:39;30.60;46.90
13488;DHT22;6816;48.506;9.050;2023-06-26T17:05:40;30.50;46.60
13488;DHT22;6816;48.506;9.050;2023-06-26T17:08:40;30.30;46.50
13488;DHT22;6816;48.506;9.050;2023-06-26T17:11:41;30.20;46.40
13488;DHT22;6816;48.506;9.050;2023-06-26T17:14:42;30.10;46.10
13488;DHT22;6816;48.506;9.050;2023-06-26T17:17:43;30.00;45.80
13488;DHT22;6816;48.506;9.050;2023-06-26T17:20:43;29.90;46.30
13488;DHT22;6816;48.506;9.050;2023-06-26T17:23:44;29.80;46.40
13488;DHT22;6816;48.506;9.050;2023-06-26T17:26:44;29.70;45.50
13488;DHT22;6816;48.506;9.050;2023-06-26T17:29:45;29.50;45.40
13488;DHT22;6816;48.506;9.050;2023-06-26T17:32:45;29.40;46.30
13488;DHT22;6816;48.506;9.050;2023-06-26T17:35:46;29.30;45.50
13488;DHT22;6816;48.506;9.050;2023-06-26T17:38:47;29.20;45.60
13488;DHT22;6816;48.506;9.050;2023-06-26T17:41:47;29.10;45.50
13488;DHT22;6816;48.506;9.050;2023-06-26T17:44:48;29.00;45.60
13488;DHT22;6816;48.506;9.050;2023-06-26T17:47:48;28.90;45.40
13488;DHT22;6816;48.506;9.050;2023-06-26T17:50:49;28.90;45.70
13488;DHT22;6816;48.506;9.050;2023-06-26T17:53:50;28.80;45.70
13488;DHT22;6816;48.506;9.050;2023-06-26T17:56:51;28.70;45.70
13488;DHT22;6816;48.506;9.050;2023-06-26T17:59:51;28.70;45.50
13488;DHT22;6816;48.506;9.050;2023-06-26T18:02:52;28.70;45.70
13488;DHT22;6816;48.506;9.050;2023-06-26T18:05:53;28.60;45.50
13488;DHT22;6816;48.506;9.050;2023-06-26T18:08:53;28.60;45.30
13488;DHT22;6816;48.506;9.050;2023-06-26T18:11:54;28.50;45.20
13488;DHT22;6816;48.506;9.050;2023-06-26T18:14:54;28.50;45.00
13488;DHT22;6816;48.506;9.050;2023-06-26T18:17:55;28.40;45.10
13488;DHT22;6816;48.506;9.050;2023-06-26T18:20:55;28.40;45.00
13488;DHT22;6816;48.506;9.050;2023-06-26T18:23:57;28.30;45.00
13488;DHT22;6816;48.506;9.050;2023-06-26T18:26:58;28.30;45.10
13488;DHT22;6816;48.506;9.050;2023-06-26T18:29:58;28.30;45.70
13488;DHT22;6816;48.506;9.050;2023-06-26T18:32:59;28.20;45.20
13488;DHT22;6816;48.506;9.050;2023-06-26T18:36:00;28.10;45.50
13488;DHT22;6816;48.506;9.050;2023-06-26T18:39:00;28.00;45.50
13488;DHT22;6816;48.506;9.050;2023-06-26T18:42:01;27.90;45.40
13488;DHT22;6816;48.506;9.050;2023-06-26T18:45:04;27.90;45.60
13488;DHT22;6816;48.506;9.050;2023-06-26T18:48:05;27.80;46.40
13488;DHT22;6816;48.506;9.050;2023-06-26T18:51:05;27.70;45.70
13488;DHT22;6816;48.506;9.050;2023-06-26T18:54:06;27.60;45.80
13488;DHT22;6816;48.506;9.050;2023-06-26T18:57:06;27.50;45.60
13488;DHT22;6816;48.506;9.050;2023-06-26T19:00:07;27.50;45.50
13488;DHT22;6816;48.506;9.050;2023-06-26T19:03:09;27.40;45.50
13488;DHT22;6816;48.506;9.050;2023-06-26T19:06:09;27.30;46.40
13488;DHT22;6816;48.506;9.050;2023-06-26T19:09:10;27.20;45.90
13488;DHT22;6816;48.506;9.050;2023-06-26T19:12:10;27.10;45.90
13488;DHT22;6816;48.506;9.050;2023-06-26T19:15:11;27.00;46.00
13488;DHT22;6816;48.506;9.050;2023-06-26T19:18:12;26.90;45.90
13488;DHT22;6816;48.506;9.050;2023-06-26T19:21:12;26.80;46.00
13488;DHT22;6816;48.506;9.050;2023-06-26T19:24:13;26.70;46.20
13488;DHT22;6816;48.506;9.050;2023-06-26T19:27:14;26.60;46.30
13488;DHT22;6816;48.506;9.050;2023-06-26T19:30:14;26.50;46.90